createdAt,value
2019-06-10T00:00:31.440Z,4.10
2019-06-10T00:02:41.331Z,4.17
2019-06-10T00:04:50.709Z,4.25
2019-06-10T00:06:57.766Z,4.58
2019-06-10T00:09:07.970Z,3.92
2019-06-10T00:11:15.224Z,4.10
2019-06-10T00:13:22.644Z,3.75
2019-06-10T00:15:31.410Z,4.15
2019-06-10T00:17:53.127Z,3.70
2019-06-10T00:19:48.382Z,3.58
2019-06-10T00:21:55.791Z,3.77
2019-06-10T00:24:05.216Z,3.55
2019-06-10T00:26:12.783Z,3.62
2019-06-10T00:28:21.721Z,3.55
2019-06-10T00:30:31.319Z,3.30
2019-06-10T00:32:41.035Z,3.52
2019-06-10T00:34:50.420Z,3.80
2019-06-10T00:36:57.299Z,3.60
2019-06-10T00:39:07.297Z,3.95
2019-06-10T00:41:15.483Z,3.27
2019-06-10T00:43:22.898Z,3.83
2019-06-10T00:45:31.551Z,3.45
2019-06-10T00:47:41.308Z,3.75
2019-06-10T00:49:48.341Z,3.20
2019-06-10T00:51:55.771Z,3.72
2019-06-10T00:54:04.967Z,4.17
2019-06-10T00:56:14.351Z,3.58
2019-06-10T00:58:21.820Z,3.77
2019-06-10T01:00:31.630Z,3.85
2019-06-10T01:02:41.053Z,3.80
2019-06-10T01:04:48.275Z,3.80
2019-06-10T01:06:55.912Z,3.92
2019-06-10T01:09:04.526Z,4.20
2019-06-10T01:11:21.280Z,3.90
2019-06-10T01:13:21.081Z,4.58
2019-06-10T01:15:31.021Z,3.90
2019-06-10T01:17:37.842Z,3.85
2019-06-10T01:19:45.317Z,3.72
2019-06-10T01:21:52.790Z,4.65
2019-06-10T01:24:01.174Z,4.40
2019-06-10T01:26:12.504Z,4.47
2019-06-10T01:28:18.590Z,4.00
2019-06-10T01:30:27.297Z,4.03
2019-06-10T01:32:34.937Z,4.08
2019-06-10T01:34:42.386Z,4.28
2019-06-10T01:36:50.920Z,4.50
2019-06-10T01:38:58.481Z,5.67
2019-06-10T01:41:06.113Z,5.65
2019-06-10T01:43:16.812Z,4.62
2019-06-10T01:45:22.926Z,4.65
2019-06-10T01:47:30.984Z,4.92
2019-06-10T01:49:38.563Z,4.55
2019-06-10T01:51:45.930Z,4.70
2019-06-10T01:53:53.344Z,4.42
2019-06-10T01:56:01.099Z,4.70
2019-06-10T01:58:09.822Z,4.50
2019-06-10T02:00:25.335Z,4.75
2019-06-10T02:02:34.445Z,3.75
2019-06-10T02:04:40.999Z,4.37
2019-06-10T02:06:47.461Z,3.87
2019-06-10T02:09:05.178Z,4.08
2019-06-10T02:11:15.498Z,3.77
2019-06-10T02:13:33.339Z,3.55
2019-06-10T02:15:41.060Z,3.95
2019-06-10T02:17:50.877Z,3.67
2019-06-10T02:19:57.764Z,3.72
2019-06-10T02:22:05.155Z,3.40
2019-06-10T02:24:14.348Z,3.70
2019-06-10T02:26:23.579Z,3.67
2019-06-10T02:28:31.889Z,3.25
2019-06-10T02:30:46.096Z,2.90
2019-06-10T02:32:52.124Z,3.00
2019-06-10T02:35:14.433Z,3.15
2019-06-10T02:37:06.912Z,2.98
2019-06-10T02:39:20.173Z,3.30
2019-06-10T02:41:31.663Z,3.25
2019-06-10T02:43:37.393Z,3.42
2019-06-10T02:45:44.435Z,3.00
2019-06-10T02:47:53.314Z,3.15
2019-06-10T02:50:04.531Z,3.20
2019-06-10T02:52:32.964Z,3.40
2019-06-10T02:54:37.468Z,3.35
2019-06-10T02:56:44.848Z,3.27
2019-06-10T02:58:53.531Z,3.50
2019-06-10T03:01:04.207Z,3.37
2019-06-10T03:03:13.461Z,2.92
2019-06-10T03:05:21.473Z,3.40
2019-06-10T03:07:31.489Z,3.12
2019-06-10T03:09:37.624Z,2.90
2019-06-10T03:11:45.304Z,2.83
2019-06-10T03:13:53.166Z,3.35
2019-06-10T03:16:24.425Z,3.27
2019-06-10T03:18:32.858Z,3.20
2019-06-10T03:20:42.542Z,2.95
2019-06-10T03:22:49.626Z,2.85
2019-06-10T03:24:57.011Z,3.10
2019-06-10T03:27:04.532Z,2.92
2019-06-10T03:29:12.952Z,2.83
2019-06-10T03:31:22.038Z,2.90
2019-06-10T03:33:36.732Z,2.83
2019-06-10T03:35:38.857Z,2.62
2019-06-10T03:37:46.295Z,3.02
2019-06-10T03:39:53.832Z,2.70
2019-06-10T03:42:02.271Z,3.00
2019-06-10T03:44:09.966Z,2.60
2019-06-10T03:46:17.440Z,3.08
2019-06-10T03:48:26.764Z,2.85
2019-06-10T03:50:34.175Z,2.92
2019-06-10T03:52:43.168Z,3.10
2019-06-10T03:54:52.489Z,3.25
2019-06-10T03:57:02.626Z,2.85
2019-06-10T03:59:09.419Z,2.90
2019-06-10T04:01:17.429Z,2.92
2019-06-10T04:03:27.635Z,2.70
2019-06-10T04:05:34.033Z,3.17
2019-06-10T04:07:42.743Z,2.80
2019-06-10T04:09:52.493Z,2.92
2019-06-10T04:12:01.923Z,2.85
2019-06-10T04:14:09.054Z,2.80
2019-06-10T04:16:17.618Z,2.80
2019-06-10T04:18:27.851Z,2.75
2019-06-10T04:20:34.932Z,2.90
2019-06-10T04:22:44.453Z,3.00
2019-06-10T04:24:52.116Z,2.52
2019-06-10T04:26:59.811Z,3.17
2019-06-10T04:29:07.291Z,2.67
2019-06-10T04:31:14.831Z,3.17
2019-06-10T04:33:23.302Z,3.00
2019-06-10T04:35:33.534Z,2.85
2019-06-10T04:37:42.811Z,2.87
2019-06-10T04:39:49.820Z,2.70
2019-06-10T04:41:57.321Z,3.00
2019-06-10T04:44:04.968Z,3.20
2019-06-10T04:46:12.832Z,2.90
2019-06-10T04:48:23.136Z,2.77
2019-06-10T04:50:39.113Z,2.83
2019-06-10T04:52:39.136Z,2.98
2019-06-10T04:54:46.555Z,2.83
2019-06-10T04:56:54.262Z,3.08
2019-06-10T04:59:03.128Z,3.10
2019-06-10T05:01:12.148Z,3.15
2019-06-10T05:03:20.880Z,2.80
2019-06-10T05:05:30.074Z,2.90
2019-06-10T05:07:38.161Z,2.85
2019-06-10T05:09:45.578Z,3.02
2019-06-10T05:11:53.075Z,2.75
2019-06-10T05:14:02.745Z,3.17
2019-06-10T05:16:12.275Z,3.20
2019-06-10T05:18:19.533Z,3.00
2019-06-10T05:20:44.429Z,3.02
2019-06-10T05:22:36.284Z,2.50
2019-06-10T05:24:43.845Z,2.62
2019-06-10T05:26:52.671Z,2.77
2019-06-10T05:29:00.253Z,2.60
2019-06-10T05:31:07.722Z,2.90
2019-06-10T05:33:15.267Z,3.10
2019-06-10T05:35:24.369Z,3.20
2019-06-10T05:37:33.850Z,3.40
2019-06-10T05:39:42.400Z,3.20
2019-06-10T05:41:52.646Z,3.10
2019-06-10T05:43:59.451Z,3.30
2019-06-10T05:46:07.024Z,3.02
2019-06-10T05:48:16.778Z,3.10
2019-06-10T05:50:25.187Z,3.08
2019-06-10T05:52:33.831Z,3.55
2019-06-10T05:54:43.139Z,2.65
2019-06-10T05:56:52.205Z,2.80
2019-06-10T05:59:02.262Z,3.02
2019-06-10T06:01:08.937Z,3.15
2019-06-10T06:03:16.521Z,2.90
2019-06-10T06:05:24.088Z,3.10
2019-06-10T06:07:33.888Z,2.90
2019-06-10T06:09:42.586Z,3.02
2019-06-10T06:11:52.366Z,3.00
2019-06-10T06:13:59.489Z,2.83
2019-06-10T06:16:06.999Z,2.95
2019-06-10T06:18:14.419Z,2.65
2019-06-10T06:20:23.497Z,3.00
2019-06-10T06:22:34.043Z,2.80
2019-06-10T06:24:42.637Z,2.50
2019-06-10T06:26:49.839Z,2.83
2019-06-10T06:28:57.236Z,2.70
2019-06-10T06:31:07.402Z,2.80
2019-06-10T06:33:14.848Z,2.90
2019-06-10T06:35:22.771Z,2.67
2019-06-10T06:37:34.498Z,2.47
2019-06-10T06:39:39.411Z,2.60
2019-06-10T06:41:46.824Z,2.55
2019-06-10T06:43:54.267Z,2.77
2019-06-10T06:46:02.413Z,2.55
2019-06-10T06:48:12.345Z,2.35
2019-06-10T06:50:23.065Z,2.27
2019-06-10T06:52:55.621Z,2.37
2019-06-10T06:54:39.453Z,2.65
2019-06-10T06:56:46.984Z,2.50
2019-06-10T06:58:54.540Z,2.08
2019-06-10T07:01:10.133Z,2.40
2019-06-10T07:03:12.589Z,2.37
2019-06-10T07:05:20.234Z,2.65
2019-06-10T07:07:32.717Z,2.52
2019-06-10T07:09:43.198Z,2.80
2019-06-10T07:11:52.924Z,2.70
2019-06-10T07:14:03.860Z,2.60
2019-06-10T07:16:13.175Z,2.42
2019-06-10T07:18:23.178Z,2.33
2019-06-10T07:20:33.251Z,2.70
2019-06-10T07:22:42.756Z,2.58
2019-06-10T07:24:52.654Z,2.58
2019-06-10T07:26:59.042Z,2.35
2019-06-10T07:29:06.452Z,2.60
2019-06-10T07:31:23.076Z,2.77
2019-06-10T07:33:23.177Z,2.30
2019-06-10T07:35:33.039Z,2.40
2019-06-10T07:37:41.792Z,2.35
2019-06-10T07:39:49.105Z,2.30
2019-06-10T07:41:56.598Z,2.45
2019-06-10T07:44:06.451Z,2.47
2019-06-10T07:46:14.108Z,2.22
2019-06-10T07:48:22.275Z,2.35
2019-06-10T07:50:29.995Z,2.37
2019-06-10T07:52:37.526Z,2.50
2019-06-10T07:54:45.378Z,2.25
2019-06-10T07:56:53.913Z,2.30
2019-06-10T07:59:03.854Z,2.37
2019-06-10T08:01:12.883Z,2.58
2019-06-10T08:03:22.314Z,2.25
2019-06-10T08:05:29.214Z,2.70
2019-06-10T08:07:36.872Z,2.37
2019-06-10T08:09:45.750Z,2.35
2019-06-10T08:11:53.420Z,2.58
2019-06-10T08:14:04.565Z,2.30
2019-06-10T08:16:12.778Z,2.80
2019-06-10T08:18:19.199Z,2.55
2019-06-10T08:20:45.231Z,2.58
2019-06-10T08:22:57.625Z,2.55
2019-06-10T08:25:04.949Z,2.17
2019-06-10T08:27:12.097Z,2.58
2019-06-10T08:29:19.621Z,2.65
2019-06-10T08:31:27.187Z,2.70
2019-06-10T08:33:36.891Z,2.55
2019-06-10T08:35:55.771Z,2.60
2019-06-10T08:37:54.138Z,2.60
2019-06-10T08:40:03.668Z,2.95
2019-06-10T08:42:12.447Z,2.45
2019-06-10T08:44:20.080Z,3.20
2019-06-10T08:46:27.615Z,2.95
2019-06-10T08:48:35.214Z,3.08
2019-06-10T08:51:06.915Z,3.25
2019-06-10T08:53:17.837Z,3.10
2019-06-10T08:55:23.990Z,3.22
2019-06-10T08:57:44.162Z,3.00
2019-06-10T08:59:50.279Z,3.30
2019-06-10T09:01:57.873Z,3.90
2019-06-10T09:04:22.706Z,3.22
2019-06-10T09:06:29.810Z,3.80
2019-06-10T09:08:39.550Z,3.22
2019-06-10T09:10:49.792Z,3.47
2019-06-10T09:12:55.450Z,3.27
2019-06-10T09:15:03.789Z,3.42
2019-06-10T09:17:13.235Z,3.70
2019-06-10T09:19:22.178Z,4.00
2019-06-10T09:21:29.848Z,4.20
2019-06-10T09:23:37.241Z,3.87
2019-06-10T09:25:48.872Z,4.92
2019-06-10T09:27:54.823Z,5.12
2019-06-10T09:30:03.029Z,5.00
2019-06-10T09:32:12.354Z,5.00
2019-06-10T09:34:19.341Z,5.25
2019-06-10T09:36:26.777Z,5.53
2019-06-10T09:38:34.647Z,6.33
2019-06-10T09:41:07.204Z,6.25
2019-06-10T09:43:15.346Z,5.78
2019-06-10T09:45:22.972Z,5.33
2019-06-10T09:47:33.984Z,5.87
2019-06-10T09:49:45.571Z,5.95
2019-06-10T09:51:56.246Z,5.97
2019-06-10T09:54:06.099Z,6.62
2019-06-10T09:56:09.643Z,6.10
2019-06-10T09:58:17.187Z,6.42
2019-06-10T10:00:47.534Z,6.33
2019-06-10T10:02:55.994Z,6.40
2019-06-10T10:05:00.880Z,6.35
2019-06-10T10:07:12.029Z,7.17
2019-06-10T10:09:19.137Z,6.85
2019-06-10T10:11:28.636Z,7.10
2019-06-10T10:13:36.006Z,7.10
2019-06-10T10:15:43.632Z,7.05
2019-06-10T10:17:54.863Z,6.92
2019-06-10T10:20:03.025Z,6.78
2019-06-10T10:22:11.666Z,6.53
2019-06-10T10:24:18.652Z,6.58
2019-06-10T10:26:26.212Z,7.25
2019-06-10T10:28:33.709Z,7.37
2019-06-10T10:30:44.663Z,7.62
2019-06-10T10:32:52.357Z,7.28
2019-06-10T10:35:02.756Z,7.35
2019-06-10T10:37:08.772Z,7.67
2019-06-10T10:39:16.165Z,7.87
2019-06-10T10:41:24.204Z,7.03
2019-06-10T10:43:34.048Z,9.10
2019-06-10T10:45:43.511Z,8.33
2019-06-10T10:47:52.621Z,9.43
2019-06-10T10:50:02.555Z,8.93
2019-06-10T10:52:09.422Z,8.15
2019-06-10T10:54:29.774Z,7.58
2019-06-10T10:56:26.217Z,8.43
2019-06-10T10:58:33.688Z,8.10
2019-06-10T11:00:47.840Z,8.35
2019-06-10T11:02:55.217Z,8.60
2019-06-10T11:05:03.026Z,8.73
2019-06-10T11:07:21.783Z,8.25
2019-06-10T11:09:29.626Z,8.60
2019-06-10T11:11:38.779Z,8.60
2019-06-10T11:13:49.377Z,8.05
2019-06-10T11:15:58.421Z,8.55
2019-06-10T11:18:07.755Z,9.30
2019-06-10T11:20:15.281Z,9.15
2019-06-10T11:22:23.281Z,9.05
2019-06-10T11:24:37.686Z,9.35
2019-06-10T11:26:39.969Z,9.40
2019-06-10T11:28:47.508Z,9.40
2019-06-10T11:30:56.886Z,9.00
2019-06-10T11:33:04.256Z,9.13
2019-06-10T11:35:12.321Z,8.83
2019-06-10T11:37:19.871Z,9.88
2019-06-10T11:39:27.407Z,8.93
2019-06-10T11:41:34.800Z,9.65
2019-06-10T11:43:42.913Z,9.60
2019-06-10T11:45:55.075Z,9.00
2019-06-10T11:48:58.912Z,9.85
2019-06-10T11:51:06.188Z,9.58
2019-06-10T11:53:13.761Z,9.88
2019-06-10T11:55:23.841Z,9.33
2019-06-10T11:57:32.947Z,12.60
2019-06-10T11:59:39.891Z,9.20
2019-06-10T12:01:49.800Z,9.35
2019-06-10T12:03:58.570Z,8.88
2019-06-10T12:06:06.347Z,8.58
2019-06-10T12:08:13.925Z,8.85
2019-06-10T12:10:23.331Z,9.58
2019-06-10T12:12:33.714Z,9.30
2019-06-10T12:14:40.093Z,9.35
2019-06-10T12:18:58.569Z,9.28
2019-06-10T12:21:06.081Z,10.00
2019-06-10T12:23:14.484Z,9.43
2019-06-10T12:25:32.469Z,9.68
2019-06-10T12:27:32.825Z,8.95
2019-06-10T12:29:42.280Z,9.73
2019-06-10T12:31:50.793Z,9.68
2019-06-10T12:34:00.889Z,10.25
2019-06-10T12:36:08.412Z,9.40
2019-06-10T12:38:15.871Z,9.58
2019-06-10T12:40:25.846Z,10.08
2019-06-10T12:42:33.447Z,9.53
2019-06-10T12:44:42.841Z,10.08
2019-06-10T12:46:53.330Z,8.75
2019-06-10T12:49:03.669Z,9.83
2019-06-10T12:51:09.790Z,8.65
2019-06-10T12:53:17.523Z,9.10
2019-06-10T12:55:38.495Z,10.03
2019-06-10T12:57:35.731Z,9.33
2019-06-10T12:59:43.475Z,9.25
2019-06-10T13:01:53.149Z,9.58
2019-06-10T13:04:04.371Z,9.53
2019-06-10T13:06:12.873Z,9.15
2019-06-10T13:08:23.248Z,9.63
2019-06-10T13:10:42.738Z,8.90
2019-06-10T13:12:53.008Z,8.85
2019-06-10T13:15:03.398Z,9.75
2019-06-10T13:17:13.022Z,9.93
2019-06-10T13:19:23.096Z,9.70
2019-06-10T13:21:33.006Z,9.28
2019-06-10T13:23:42.864Z,8.78
2019-06-10T13:25:55.352Z,8.60
2019-06-10T13:27:59.948Z,8.53
2019-06-10T13:30:09.409Z,8.70
2019-06-10T13:32:16.848Z,8.05
2019-06-10T13:34:24.391Z,8.80
2019-06-10T13:36:33.118Z,8.95
2019-06-10T13:38:42.741Z,8.85
2019-06-10T13:40:49.928Z,9.13
2019-06-10T13:42:59.720Z,8.50
2019-06-10T13:45:08.554Z,8.70
2019-06-10T13:47:17.051Z,8.73
2019-06-10T13:49:25.511Z,8.00
2019-06-10T13:51:35.632Z,8.45
2019-06-10T13:53:46.228Z,8.53
2019-06-10T13:56:14.368Z,8.33
2019-06-10T13:58:06.171Z,8.98
2019-06-10T14:00:14.683Z,9.13
2019-06-10T14:02:24.741Z,8.63
2019-06-10T14:04:33.310Z,9.10
2019-06-10T14:06:49.647Z,8.90
2019-06-10T14:08:54.568Z,9.50
2019-06-10T14:11:03.399Z,9.93
2019-06-10T14:13:10.860Z,8.53
2019-06-10T14:15:18.949Z,8.55
2019-06-10T14:17:26.501Z,8.73
2019-06-10T14:19:35.349Z,8.30
2019-06-10T14:21:43.056Z,8.08
2019-06-10T14:23:50.785Z,8.40
2019-06-10T14:25:58.926Z,8.60
2019-06-10T14:28:09.035Z,8.30
2019-06-10T14:30:17.479Z,8.28
2019-06-10T14:32:25.028Z,8.13
2019-06-10T14:34:32.839Z,8.60
2019-06-10T14:36:40.373Z,7.90
2019-06-10T14:38:48.067Z,8.35
2019-06-10T14:40:55.656Z,8.40
2019-06-10T14:43:04.156Z,8.18
2019-06-10T14:45:13.985Z,8.73
2019-06-10T14:47:23.060Z,9.08
2019-06-10T14:49:33.004Z,8.75
2019-06-10T14:51:42.937Z,8.40
2019-06-10T14:53:49.982Z,8.45
2019-06-10T14:55:57.710Z,8.60
2019-06-10T14:58:05.615Z,8.98
2019-06-10T15:00:16.687Z,8.43
2019-06-10T15:02:23.754Z,8.60
2019-06-10T15:04:33.228Z,8.45
2019-06-10T15:06:43.180Z,8.50
2019-06-10T15:08:50.176Z,8.55
2019-06-10T15:10:58.160Z,8.60
2019-06-10T15:13:05.672Z,8.28
2019-06-10T15:15:14.362Z,8.65
2019-06-10T15:17:22.704Z,8.75
2019-06-10T15:19:30.215Z,8.98
2019-06-10T15:21:38.410Z,8.63
2019-06-10T15:23:46.254Z,9.05
2019-06-10T15:25:56.833Z,8.35
2019-06-10T15:28:03.406Z,8.70
2019-06-10T15:30:20.631Z,8.95
2019-06-10T15:32:33.880Z,8.50
2019-06-10T15:34:32.581Z,9.38
2019-06-10T15:37:03.362Z,8.68
2019-06-10T15:39:14.573Z,8.43
2019-06-10T15:41:24.077Z,8.45
2019-06-10T15:43:32.919Z,8.45
2019-06-10T15:45:39.915Z,8.58
2019-06-10T15:47:47.806Z,8.58
2019-06-10T15:49:55.454Z,7.95
2019-06-10T15:52:03.434Z,8.08
2019-06-10T15:54:14.097Z,8.68
2019-06-10T15:56:37.382Z,9.08
2019-06-10T15:58:34.497Z,20.15
2019-06-10T16:00:42.689Z,11.90
2019-06-10T16:02:50.303Z,10.32
2019-06-10T16:04:57.759Z,9.15
2019-06-10T16:07:05.609Z,11.55
2019-06-10T16:09:14.210Z,13.83
2019-06-10T16:11:26.680Z,11.85
2019-06-10T16:13:32.513Z,8.98
2019-06-10T16:15:40.101Z,8.88
2019-06-10T16:17:48.651Z,8.98
2019-06-10T16:19:56.193Z,8.15
2019-06-10T16:22:04.822Z,9.10
2019-06-10T16:24:13.677Z,8.33
2019-06-10T16:26:25.272Z,8.63
2019-06-10T16:28:32.830Z,9.20
2019-06-10T16:30:42.871Z,8.90
2019-06-10T16:32:53.043Z,8.90
2019-06-10T16:35:03.864Z,8.78
2019-06-10T16:37:12.842Z,8.35
2019-06-10T16:39:21.736Z,8.95
2019-06-10T16:41:29.441Z,8.78
2019-06-10T16:43:37.158Z,9.35
2019-06-10T16:45:44.699Z,9.28
2019-06-10T16:47:53.057Z,8.93
2019-06-10T16:50:03.031Z,8.50
2019-06-10T16:52:12.064Z,9.55
2019-06-10T16:54:19.599Z,9.25
2019-06-10T16:56:27.840Z,8.58
2019-06-10T16:58:35.629Z,9.28
2019-06-10T17:00:43.395Z,8.75
2019-06-10T17:02:52.938Z,8.95
2019-06-10T17:05:03.022Z,8.88
2019-06-10T17:07:09.718Z,8.75
2019-06-10T17:09:18.370Z,8.88
2019-06-10T17:11:28.778Z,9.30
2019-06-10T17:13:36.464Z,8.80
2019-06-10T17:15:44.052Z,9.28
2019-06-10T17:17:52.158Z,8.58
2019-06-10T17:20:03.822Z,9.20
2019-06-10T17:22:12.498Z,9.33
2019-06-10T17:24:19.369Z,8.78
2019-06-10T17:26:33.486Z,9.15
2019-06-10T17:28:37.877Z,9.43
2019-06-10T17:30:45.489Z,9.63
2019-06-10T17:32:53.657Z,9.33
2019-06-10T17:35:02.318Z,8.30
2019-06-10T17:37:12.361Z,9.30
2019-06-10T17:39:21.265Z,9.45
2019-06-10T17:41:30.524Z,9.35
2019-06-10T17:43:38.242Z,9.63
2019-06-10T17:45:46.027Z,9.18
2019-06-10T17:47:53.606Z,8.65
2019-06-10T17:50:02.334Z,9.83
2019-06-10T17:52:12.776Z,9.50
2019-06-10T17:54:19.550Z,9.20
2019-06-10T17:56:29.155Z,9.58
2019-06-10T17:58:50.295Z,10.40
2019-06-10T18:00:46.516Z,10.63
2019-06-10T18:02:54.151Z,9.48
2019-06-10T18:05:03.254Z,9.53
2019-06-10T18:07:13.037Z,9.55
2019-06-10T18:09:22.695Z,9.90
2019-06-10T18:11:32.867Z,9.83
2019-06-10T18:13:39.543Z,9.38
2019-06-10T18:15:47.428Z,9.98
2019-06-10T18:17:55.982Z,9.75
2019-06-10T18:20:03.715Z,9.68
2019-06-10T18:22:12.589Z,9.75
2019-06-10T18:24:23.691Z,10.48
2019-06-10T18:26:30.884Z,10.45
2019-06-10T18:28:57.750Z,10.60
2019-06-10T18:30:48.249Z,9.55
2019-06-10T18:32:56.112Z,10.35
2019-06-10T18:35:04.266Z,10.25
2019-06-10T18:37:12.253Z,9.73
2019-06-10T18:39:20.032Z,9.95
2019-06-10T18:41:27.996Z,10.40
2019-06-10T18:43:36.892Z,9.95
2019-06-10T18:45:45.047Z,11.48
2019-06-10T18:47:53.041Z,10.25
2019-06-10T18:50:01.020Z,10.72
2019-06-10T18:52:08.965Z,10.28
2019-06-10T18:54:16.774Z,9.73
2019-06-10T18:56:24.535Z,10.55
2019-06-10T18:58:34.624Z,9.98
2019-06-10T19:00:56.892Z,9.75
2019-06-10T19:03:08.676Z,9.35
2019-06-10T19:05:02.827Z,10.30
2019-06-10T19:07:11.222Z,9.78
2019-06-10T19:09:20.130Z,9.80
2019-06-10T19:11:29.033Z,10.30
2019-06-10T19:13:37.564Z,10.23
2019-06-10T19:15:46.583Z,10.68
2019-06-10T19:17:54.523Z,11.28
2019-06-10T19:20:03.928Z,11.57
2019-06-10T19:22:13.278Z,10.00
2019-06-10T19:24:23.322Z,10.25
2019-06-10T19:26:33.879Z,9.90
2019-06-10T19:28:44.772Z,9.80
2019-06-10T19:30:53.101Z,9.30
2019-06-10T19:33:02.199Z,9.95
2019-06-10T19:35:13.063Z,9.68
2019-06-10T19:37:22.122Z,9.98
2019-06-10T19:39:33.216Z,9.25
2019-06-10T19:41:44.197Z,9.20
2019-06-10T19:43:49.398Z,9.63
2019-06-10T19:45:57.910Z,9.38
2019-06-10T19:48:05.680Z,9.13
2019-06-10T19:50:13.872Z,9.18
2019-06-10T19:52:23.399Z,9.60
2019-06-10T19:54:32.288Z,9.40
2019-06-10T19:56:41.586Z,9.73
2019-06-10T19:58:49.769Z,9.35
2019-06-10T20:00:57.687Z,9.28
2019-06-10T20:03:05.854Z,9.20
2019-06-10T20:05:14.316Z,9.20
2019-06-10T20:07:22.955Z,9.05
2019-06-10T20:09:32.879Z,9.30
2019-06-10T20:11:45.689Z,9.05
2019-06-10T20:13:53.158Z,9.50
2019-06-10T20:16:02.967Z,9.83
2019-06-10T20:18:12.286Z,9.63
2019-06-10T20:20:22.604Z,9.55
2019-06-10T20:22:32.048Z,10.00
2019-06-10T20:24:43.017Z,9.80
2019-06-10T20:26:52.731Z,9.08
2019-06-10T20:28:59.866Z,9.20
2019-06-10T20:31:07.720Z,9.25
2019-06-10T20:33:33.687Z,9.30
2019-06-10T20:35:40.803Z,9.25
2019-06-10T20:37:50.228Z,9.40
2019-06-10T20:39:58.020Z,9.43
2019-06-10T20:42:08.294Z,9.60
2019-06-10T20:44:16.411Z,9.48
2019-06-10T20:46:24.039Z,9.95
2019-06-10T20:48:33.262Z,9.83
2019-06-10T20:50:43.675Z,10.08
2019-06-10T20:52:52.415Z,10.23
2019-06-10T20:55:03.088Z,9.43
2019-06-10T20:57:12.103Z,9.38
2019-06-10T20:59:22.430Z,10.20
2019-06-10T21:01:28.712Z,9.88
2019-06-10T21:03:36.263Z,9.68
2019-06-10T21:05:50.022Z,9.78
2019-06-10T21:08:02.847Z,10.55
2019-06-10T21:10:12.891Z,9.80
2019-06-10T21:12:22.205Z,11.33
2019-06-10T21:14:29.797Z,9.78
2019-06-10T21:16:37.359Z,10.18
2019-06-10T21:18:48.403Z,10.32
2019-06-10T21:20:56.237Z,10.20
2019-06-10T21:23:03.779Z,10.15
2019-06-10T21:25:12.479Z,10.15
2019-06-10T21:27:23.552Z,10.88
2019-06-10T21:29:32.158Z,10.15
2019-06-10T21:31:41.060Z,10.75
2019-06-10T21:33:49.538Z,10.88
2019-06-10T21:35:58.389Z,10.45
2019-06-10T21:38:06.421Z,9.83
2019-06-10T21:40:14.485Z,10.93
2019-06-10T21:42:22.965Z,10.65
2019-06-10T21:44:32.025Z,11.12
2019-06-10T21:46:39.604Z,11.22
2019-06-10T21:48:47.747Z,10.45
2019-06-10T21:50:56.799Z,11.18
2019-06-10T21:53:04.381Z,10.70
2019-06-10T21:55:13.149Z,11.28
2019-06-10T21:57:22.110Z,11.30
2019-06-10T21:59:32.043Z,10.48
2019-06-10T22:01:39.363Z,11.03
2019-06-10T22:03:51.102Z,10.48
2019-06-10T22:05:56.356Z,10.90
2019-06-10T22:08:03.992Z,10.70
2019-06-10T22:10:12.782Z,10.60
2019-06-10T22:12:20.837Z,10.45
2019-06-10T22:14:28.428Z,10.38
2019-06-10T22:16:36.395Z,10.32
2019-06-10T22:18:44.540Z,10.63
2019-06-10T22:20:56.623Z,10.38
2019-06-10T22:23:02.711Z,10.72
2019-06-10T22:25:13.139Z,10.50
2019-06-10T22:27:22.313Z,10.68
2019-06-10T22:29:32.137Z,10.38
2019-06-10T22:31:39.111Z,10.58
2019-06-10T22:33:47.243Z,10.72
2019-06-10T22:35:57.156Z,10.65
2019-06-10T22:38:04.238Z,10.78
2019-06-10T22:40:12.458Z,10.65
2019-06-10T22:42:22.310Z,10.55
2019-06-10T22:44:29.257Z,10.88
2019-06-10T22:46:36.817Z,10.78
2019-06-10T22:48:44.284Z,11.20
2019-06-10T22:50:53.219Z,10.65
2019-06-10T22:53:03.544Z,10.25
2019-06-10T22:55:12.826Z,10.65
2019-06-10T22:57:22.062Z,10.60
2019-06-10T22:59:28.837Z,9.98
2019-06-10T23:01:38.309Z,10.13
2019-06-10T23:03:45.591Z,10.88
2019-06-10T23:05:54.459Z,10.60
2019-06-10T23:08:02.461Z,10.38
2019-06-10T23:10:12.334Z,10.75
2019-06-10T23:12:20.211Z,10.50
2019-06-10T23:14:27.738Z,9.88
2019-06-10T23:16:35.397Z,10.70
2019-06-10T23:18:42.895Z,9.70
2019-06-10T23:20:52.048Z,10.85
2019-06-10T23:23:00.345Z,10.78
2019-06-10T23:25:08.601Z,9.90
2019-06-10T23:27:16.193Z,10.03
2019-06-10T23:29:23.755Z,10.08
2019-06-10T23:31:33.666Z,10.63
2019-06-10T23:33:42.575Z,10.90
2019-06-10T23:35:50.314Z,10.78
2019-06-10T23:37:59.916Z,10.32
2019-06-10T23:40:07.440Z,10.75
2019-06-10T23:42:15.001Z,10.82
2019-06-10T23:44:22.943Z,10.70
2019-06-10T23:46:31.981Z,10.20
2019-06-10T23:48:39.609Z,10.35
2019-06-10T23:50:47.104Z,10.23
2019-06-10T23:52:57.599Z,11.30
2019-06-10T23:55:04.507Z,10.55
2019-06-10T23:57:13.057Z,10.58
2019-06-10T23:59:22.661Z,10.30
